»·PEaware :: RNGR824 KNGP-KNGP

RNGR824 :: KNGP-KNGP

FLIGHT INFORMATION

Flight Status: Arrived
Operator: Unknown
More flights by this operator :: More flights under this callsign
Pilot: USN Avenger (31125)
Aircraft: BEECH AIRCRAFT T-6A TEXAN
(TEX2)
More flights by this aircraft type
Origin: KNGP Corpus Christi NAS/Truax
United States
Destination: KNGP Corpus Christi NAS/Truax
United States
More flights between these airports :: More routes between these airports
Route: COURSE RULES KINGS4
File this flight plan on PilotEdge
Remarks:
Altitude:
(Current/Filed)
14,500ft
Speed:
(Current/Filed)
240kts
Departed: 14-Nov-23 06:59 AM
Arrived: 14-Nov-23 07:30 AM
Distance/Time
Traveled:
0nm/0:30
Distance/Time
To Go:
Arrived

Flight Plot

Page will automatically refresh every two minutes.

Flight plan parsing failed; only flown route is shown


Map Options




Map Legend


Flown Route
Filed Route
Departure Airport
Arrival Airport
Navaid (VOR, NDB)
Fix

Horizontal Profiles

Position Reports

Time Latitude Longitude Heading Altitude Ground
Speed
14-Nov-23 06:18 27.698527 -97.284278 159 22ft 0kts
14-Nov-23 06:19 27.698525 -97.284277 159 22ft 0kts
14-Nov-23 06:20 27.698524 -97.284276 159 22ft 0kts
14-Nov-23 06:21 27.698522 -97.284276 159 22ft 0kts
14-Nov-23 06:22 27.698520 -97.284275 159 22ft 0kts
14-Nov-23 06:23 27.698519 -97.284274 159 22ft 0kts
14-Nov-23 06:24 27.698519 -97.284274 159 22ft 0kts
14-Nov-23 06:25 27.698519 -97.284274 159 22ft 0kts
14-Nov-23 06:26 27.698519 -97.284274 159 22ft 0kts
14-Nov-23 06:27 27.698519 -97.284274 159 22ft 0kts
14-Nov-23 06:28 27.698519 -97.284274 159 22ft 0kts
14-Nov-23 06:29 27.698519 -97.284274 159 22ft 0kts
14-Nov-23 06:30 27.698519 -97.284274 159 22ft 0kts
14-Nov-23 06:31 27.698519 -97.284274 159 22ft 0kts
14-Nov-23 06:32 27.698519 -97.284274 159 22ft 0kts
14-Nov-23 06:33 27.698519 -97.284274 159 22ft 0kts
14-Nov-23 06:34 27.698519 -97.284274 159 22ft 0kts
14-Nov-23 06:35 27.698519 -97.284274 159 22ft 0kts
14-Nov-23 06:36 27.698519 -97.284274 159 22ft 0kts
14-Nov-23 06:37 27.698519 -97.284274 159 22ft 0kts
14-Nov-23 06:38 27.698519 -97.284274 159 22ft 0kts
14-Nov-23 06:39 27.698519 -97.284274 159 22ft 0kts
14-Nov-23 06:43 27.698549 -97.284287 158 22ft 0kts
14-Nov-23 06:44 27.698547 -97.284286 158 22ft 0kts
14-Nov-23 06:45 27.698545 -97.284286 158 22ft 0kts
14-Nov-23 06:46 27.698544 -97.284285 158 22ft 0kts
14-Nov-23 06:47 27.698542 -97.284284 158 22ft 0kts
14-Nov-23 06:48 27.698360 -97.284369 254 22ft 6kts
14-Nov-23 06:49 27.699488 -97.286289 270 22ft 10kts
14-Nov-23 06:50 27.697150 -97.289263 236 22ft 18kts
14-Nov-23 06:51 27.696612 -97.289991 234 22ft 0kts
14-Nov-23 06:52 27.696346 -97.290336 222 22ft 0kts
14-Nov-23 06:53 27.696012 -97.290751 222 22ft 0kts
14-Nov-23 06:54 27.696010 -97.290754 222 22ft 0kts
14-Nov-23 06:55 27.695723 -97.291097 220 22ft 0kts
14-Nov-23 06:56 27.695541 -97.291298 227 22ft 0kts
14-Nov-23 06:57 27.695466 -97.291388 226 22ft 6kts
14-Nov-23 06:58 27.689538 -97.285391 133 79ft 117kts
14-Nov-23 06:59 27.661170 -97.244477 129 741ft 204kts
14-Nov-23 07:00 27.672034 -97.204722 349 2393ft 199kts
14-Nov-23 07:01 27.725123 -97.214960 352 5028ft 191kts
14-Nov-23 07:02 27.786037 -97.226133 345 5759ft 250kts
14-Nov-23 07:03 27.851500 -97.257187 333 5530ft 259kts
14-Nov-23 07:04 27.917809 -97.259984 16 5618ft 257kts
14-Nov-23 07:05 27.981690 -97.234474 9 7360ft 215kts
14-Nov-23 07:06 28.038396 -97.228021 3 10019ft 202kts
14-Nov-23 07:07 28.093109 -97.218655 11 12410ft 199kts
14-Nov-23 07:08 28.148477 -97.199678 23 14214ft 215kts
14-Nov-23 07:09 28.206733 -97.163760 31 14517ft 269kts
14-Nov-23 07:10 28.275352 -97.138570 334 14557ft 283kts
14-Nov-23 07:11 28.330904 -97.202986 315 14183ft 297kts
14-Nov-23 07:12 28.392175 -97.260633 340 11536ft 283kts
14-Nov-23 07:13 28.422142 -97.325728 239 7283ft 276kts
14-Nov-23 07:14 28.357020 -97.331231 172 4595ft 238kts
14-Nov-23 07:15 28.292445 -97.326830 174 3170ft 229kts
14-Nov-23 07:16 28.227454 -97.320196 173 2597ft 242kts
14-Nov-23 07:17 28.170068 -97.282526 137 2563ft 244kts
14-Nov-23 07:18 28.117686 -97.234137 144 2546ft 244kts
14-Nov-23 07:19 28.056620 -97.202308 155 2605ft 242kts
14-Nov-23 07:20 27.997276 -97.165485 147 1802ft 236kts
14-Nov-23 07:21 27.942776 -97.126741 152 1087ft 227kts
14-Nov-23 07:22 27.879893 -97.125386 211 1072ft 239kts
14-Nov-23 07:23 27.817942 -97.154546 195 1133ft 239kts
14-Nov-23 07:24 27.755290 -97.176991 232 1181ft 224kts
14-Nov-23 07:25 27.740547 -97.242133 257 996ft 212kts
14-Nov-23 07:26 27.723791 -97.303395 218 940ft 205kts
14-Nov-23 07:27 27.686837 -97.271624 48 948ft 160kts
14-Nov-23 07:28 27.707928 -97.291259 236 484ft 108kts
14-Nov-23 07:29 27.687756 -97.283303 135 22ft 35kts
14-Nov-23 07:30 27.687677 -97.281421 43 22ft 0kts
14-Nov-23 07:31 27.688013 -97.281200 334 22ft 0kts
14-Nov-23 07:32 27.689459 -97.282757 319 22ft 13kts
14-Nov-23 07:33 27.692323 -97.286012 313 22ft 16kts
14-Nov-23 07:34 27.695823 -97.289888 327 22ft 12kts
14-Nov-23 07:35 27.699338 -97.286017 145 22ft 4kts
14-Nov-23 07:36 27.697528 -97.285351 162 22ft 0kts

Navigation Log

Ident Type
Flight plan parsing failed, navigation log unavailable